This is the latest recevied weather packets stored in our database for station/object IV3CGM-13. If no packets are shown the sender has not sent any weather packets the latest 10 day(s).
| Time | Temp. | Humidity | Pressure | Rain* | Wind** | Luminosity | Snow |
|---|---|---|---|---|---|---|---|
| 1787757913 | 26.67° C | 60% | 1016.7 hPa | 0 mm | - | 263 W/m² | - |
| 1787757226 | 26.11° C | 67% | 1016.7 hPa | 0 mm | - | 420 W/m² | - |
| 1787756537 | 26.11° C | 68% | 1016.7 hPa | 0 mm | - | 257 W/m² | - |
| 1787755838 | 27.78° C | 57% | 1016.7 hPa | 0 mm | - | 407 W/m² | - |
| 1787755150 | 27.22° C | 58% | 1016.8 hPa | 0 mm | - | 422 W/m² | - |
| 1787754463 | 27.22° C | 57% | 1016.8 hPa | 0 mm | - | 393 W/m² | - |
| 1787753788 | 27.22° C | 55% | 1017 hPa | 0 mm | - | 535 W/m² | - |
| 1787753087 | 27.22° C | 56% | 1017 hPa | 0 mm | - | 341 W/m² | - |
| 1787752400 | 27.22° C | 57% | 1017.1 hPa | 0 mm | - | 673 W/m² | - |
| 1787751712 | 27.78° C | 56% | 1017.2 hPa | 0 mm | - | 631 W/m² | - |
| 1787751025 | 27.22° C | 55% | 1017.3 hPa | 0 mm | - | 653 W/m² | - |
| 1787750289 | 27.22° C | 56% | 1017.3 hPa | 0 mm | - | 224 W/m² | - |
| 1787749588 | 27.22° C | 55% | 1017.2 hPa | 0 mm | - | 730 W/m² | - |
| 1787748900 | 26.11° C | 58% | 1017.4 hPa | 0 mm | - | 768 W/m² | - |
| 1787748200 | 27.22° C | 58% | 1017.3 hPa | 0 mm | - | 589 W/m² | - |
| 1787747512 | 26.67° C | 59% | 1017.3 hPa | 0 mm | - | 758 W/m² | - |
| 1787746776 | 27.22° C | 57% | 1017.4 hPa | 0 mm | - | 786 W/m² | - |
| 1787746074 | 26.67° C | 59% | 1017.4 hPa | 0 mm | - | 413 W/m² | - |
| 1787745386 | 26.67° C | 59% | 1017.3 hPa | 0 mm | - | 823 W/m² | - |
| 1787744699 | 26.67° C | 58% | 1017.3 hPa | 0 mm | - | 854 W/m² | - |
| 1787744011 | 26.11° C | 60% | 1017.2 hPa | 0 mm | - | 826 W/m² | - |
| 1787743324 | 26.11° C | 60% | 1017.3 hPa | 0 mm | - | 868 W/m² | - |
| 1787742636 | 26.11° C | 60% | 1017.5 hPa | 0 mm | - | 846 W/m² | - |
| 1787741950 | 26.11° C | 61% | 1017.5 hPa | 0 mm | - | 819 W/m² | - |
| 1787741223 | 26.67° C | 59% | 1017.5 hPa | 0 mm | - | 803 W/m² | - |
* Rain latest hour (hover to see other rain measurements)
** Current wind speed in m/s (hover to see current wind gust speed)